Time;durP1;ratioP1;P1;durP2;ratioP2;P2;SDS_P1;SDS_P2;PMS_P1;PMS_P2;Temp;Humidity;BMP_temperature;BMP_pressure;BME280_temperature;BME280_humidity;BME280_pressure;Samples;Min_cycle;Max_cycle;Signal;HPM_P1;HPM_P2
2023/01/09 00:01:39;;;;;;;61.97;34.75;;;3.10;99.90;;;;;;5091021;28;20044;-74
2023/01/09 00:04:07;;;;;;;56.00;32.95;;;3.00;99.90;;;;;;5067546;28;20094;-72
2023/01/09 00:06:35;;;;;;;55.05;33.08;;;3.20;99.90;;;;;;5070932;28;20064;-74
2023/01/09 00:09:02;;;;;;;136.40;66.47;;;3.20;99.90;;;;;;5071184;28;20056;-74
2023/01/09 00:11:30;;;;;;;119.18;62.38;;;3.40;99.90;;;;;;5073390;28;20046;-78
2023/01/09 00:13:57;;;;;;;79.45;48.63;;;3.30;99.90;;;;;;5025969;28;20071;-71
2023/01/09 00:16:24;;;;;;;94.13;52.05;;;3.00;99.90;;;;;;5068242;28;20043;-72
2023/01/09 00:18:52;;;;;;;131.70;73.28;;;3.20;99.90;;;;;;5069015;28;20044;-76
2023/01/09 00:21:19;;;;;;;146.23;77.80;;;3.10;99.90;;;;;;5047022;28;20717;-72
2023/01/09 00:23:47;;;;;;;158.02;89.05;;;3.10;99.90;;;;;;5070866;28;20492;-73
2023/01/09 00:26:17;;;;;;;178.55;98.32;;;3.20;99.90;;;;;;5071412;28;20047;-76
2023/01/09 00:28:45;;;;;;;175.38;97.10;;;3.20;99.90;;;;;;5055968;28;20136;-76
2023/01/09 00:31:13;;;;;;;177.95;99.78;;;2.70;99.90;;;;;;5063700;28;20072;-71
2023/01/09 00:33:51;;;;;;;189.85;103.88;;;2.90;99.90;;;;;;5059081;28;20036;-72
2023/01/09 00:36:18;;;;;;;182.05;100.65;;;2.80;99.90;;;;;;5071175;28;20045;-71
2023/01/09 00:38:46;;;;;;;174.65;98.30;;;3.00;99.90;;;;;;5074121;28;20036;-75
2023/01/09 00:41:20;;;;;;;178.98;97.63;;;2.90;99.90;;;;;;5065861;28;20041;-71
2023/01/09 00:43:52;;;;;;;172.55;97.03;;;3.00;99.90;;;;;;5070775;28;20044;-70
2023/01/09 00:46:23;;;;;;;177.48;95.70;;;3.20;99.90;;;;;;5078664;28;20059;-71
2023/01/09 00:48:51;;;;;;;172.70;93.25;;;3.20;99.90;;;;;;5049026;28;20036;-73
2023/01/09 00:51:19;;;;;;;187.30;100.78;;;3.20;99.90;;;;;;5078466;28;20040;-75
2023/01/09 00:53:47;;;;;;;201.30;100.93;;;3.20;99.90;;;;;;5079695;28;20048;-72
2023/01/09 00:56:17;;;;;;;173.27;96.30;;;3.20;99.90;;;;;;5069138;28;20041;-71
2023/01/09 00:58:45;;;;;;;205.45;107.53;;;3.40;99.90;;;;;;5074137;28;20550;-73
2023/01/09 01:01:12;;;;;;;187.23;100.47;;;3.40;99.90;;;;;;5074810;28;20098;-74
2023/01/09 01:03:40;;;;;;;181.25;103.78;;;3.30;99.90;;;;;;5079025;28;20117;-74
2023/01/09 01:08:54;;;;;;;188.85;106.30;;;3.20;99.90;;;;;;5042561;28;20053;-73
2023/01/09 01:11:22;;;;;;;194.55;106.57;;;3.10;99.90;;;;;;5066733;28;20037;-75
2023/01/09 01:13:50;;;;;;;174.90;101.53;;;3.10;99.90;;;;;;5029721;28;20048;-76
2023/01/09 01:16:17;;;;;;;171.07;96.65;;;3.20;99.90;;;;;;5061832;28;20093;-73
2023/01/09 01:18:44;;;;;;;161.65;89.03;;;3.20;99.90;;;;;;5065685;28;20037;-74
2023/01/09 01:21:13;;;;;;;144.05;82.57;;;3.30;99.90;;;;;;5060293;28;20048;-71
2023/01/09 01:23:41;;;;;;;143.45;81.65;;;3.20;99.90;;;;;;5053516;28;20369;-73
2023/01/09 01:26:12;;;;;;;136.20;76.43;;;3.20;99.90;;;;;;5066710;28;20055;-72
2023/01/09 01:28:39;;;;;;;;;;;2.80;99.90;;;;;;5055447;28;20389;-74
2023/01/09 01:31:07;;;;;;;126.10;71.57;;;2.90;99.90;;;;;;5033759;28;19929;-73
2023/01/09 01:33:34;;;;;;;121.75;67.28;;;3.10;99.90;;;;;;5063064;28;20048;-77
2023/01/09 01:36:05;;;;;;;125.30;71.00;;;3.20;99.90;;;;;;5044433;28;20115;-72
2023/01/09 01:38:34;;;;;;;121.80;67.65;;;3.20;99.90;;;;;;5029162;28;20041;-71
2023/01/09 01:41:06;;;;;;;122.55;66.65;;;3.20;99.90;;;;;;5047728;28;20665;-70
2023/01/09 01:43:54;;;;;;;115.47;64.97;;;2.80;99.90;;;;;;5041334;28;20059;-73
2023/01/09 01:46:23;;;;;;;118.45;64.05;;;2.70;99.90;;;;;;5029773;28;20389;-76
2023/01/09 01:48:57;;;;;;;116.90;67.75;;;2.80;99.90;;;;;;5055042;28;20049;-73
2023/01/09 01:51:27;;;;;;;114.30;65.13;;;2.60;99.90;;;;;;5048960;28;20077;-74
2023/01/09 01:54:00;;;;;;;101.85;61.25;;;2.70;99.90;;;;;;5035047;28;20044;-73
2023/01/09 01:56:45;;;;;;;116.75;63.45;;;2.90;99.90;;;;;;5020475;28;20040;-75
2023/01/09 01:59:19;;;;;;;113.60;62.33;;;2.80;99.90;;;;;;5032544;28;20048;-75
2023/01/09 02:01:50;;;;;;;111.72;62.85;;;2.90;99.90;;;;;;5050152;28;20040;-74
2023/01/09 02:04:19;;;;;;;111.45;62.50;;;2.80;99.90;;;;;;5044724;28;20053;-72
2023/01/09 02:06:49;;;;;;;109.85;64.10;;;2.70;99.90;;;;;;5032465;28;20041;-72
2023/01/09 02:09:21;;;;;;;112.70;63.80;;;2.50;99.90;;;;;;5063259;28;20043;-74
2023/01/09 02:11:53;;;;;;;106.15;61.63;;;2.50;99.90;;;;;;5048440;28;20048;-74
2023/01/09 02:14:27;;;;;;;116.55;64.18;;;2.60;99.90;;;;;;5063491;28;20032;-72
2023/01/09 02:17:13;;;;;;;108.45;62.28;;;2.60;99.90;;;;;;5048076;28;20055;-74
2023/01/09 02:20:12;;;;;;;107.07;62.33;;;2.50;99.90;;;;;;5063242;28;20044;-77
2023/01/09 02:23:04;;;;;;;105.30;61.80;;;2.40;99.90;;;;;;5064801;28;20036;-73
2023/01/09 02:26:03;;;;;;;110.25;61.35;;;2.50;99.90;;;;;;5046500;28;20041;-74
2023/01/09 02:28:55;;;;;;;105.47;60.03;;;2.70;99.90;;;;;;5043820;28;20056;-73
2023/01/09 02:31:50;;;;;;;112.32;61.10;;;2.70;99.90;;;;;;5062883;28;20033;-74
2023/01/09 02:34:24;;;;;;;106.05;58.95;;;2.70;99.90;;;;;;5029416;28;20052;-72
2023/01/09 02:37:28;;;;;;;102.05;59.13;;;2.70;99.90;;;;;;5063950;28;20039;-73
2023/01/09 02:39:58;;;;;;;105.75;57.25;;;2.60;99.90;;;;;;5027104;28;20095;-75
2023/01/09 02:42:26;;;;;;;101.63;58.63;;;2.30;99.90;;;;;;5062614;28;20070;-72
2023/01/09 02:44:53;;;;;;;109.55;59.55;;;2.40;99.90;;;;;;5064059;28;20048;-72
2023/01/09 02:47:20;;;;;;;102.45;62.38;;;2.30;99.90;;;;;;5065049;28;20434;-72
2023/01/09 02:50:03;;;;;;;107.85;58.83;;;2.50;99.90;;;;;;5046425;28;20044;-72
2023/01/09 02:52:58;;;;;;;107.68;59.13;;;2.30;99.90;;;;;;5064708;28;20079;-71
2023/01/09 02:55:31;;;;;;;107.47;56.92;;;2.10;99.90;;;;;;5045444;28;20041;-71
2023/01/09 02:58:04;;;;;;;92.90;53.97;;;2.30;99.90;;;;;;5065067;28;20045;-71
2023/01/09 03:00:44;;;;;;;104.38;56.47;;;2.40;99.90;;;;;;5063910;28;20365;-71
2023/01/09 03:03:52;;;;;;;105.80;55.17;;;2.40;99.90;;;;;;5065038;28;20036;-73
2023/01/09 03:06:29;;;;;;;100.38;55.03;;;2.50;99.90;;;;;;5050075;28;20106;-73
2023/01/09 03:09:03;;;;;;;94.38;52.58;;;2.30;99.90;;;;;;5053529;28;20051;-73
2023/01/09 03:11:39;;;;;;;92.85;54.80;;;2.30;99.90;;;;;;5075794;28;20510;-73
2023/01/09 03:14:14;;;;;;;105.65;58.67;;;2.50;99.90;;;;;;5064885;28;20309;-74
2023/01/09 03:16:45;;;;;;;95.75;58.10;;;2.50;99.90;;;;;;5073832;28;20039;-73
2023/01/09 03:19:18;;;;;;;94.32;55.50;;;2.40;99.90;;;;;;5088315;28;20039;-72
2023/01/09 03:21:46;;;;;;;91.20;56.42;;;2.50;99.90;;;;;;5073015;28;20507;-73
2023/01/09 03:24:14;;;;;;;88.05;51.75;;;2.50;99.90;;;;;;5077783;28;20110;-72
2023/01/09 03:26:41;;;;;;;94.97;53.53;;;2.40;99.90;;;;;;5066606;28;20103;-71
2023/01/09 03:29:09;;;;;;;93.28;54.58;;;2.30;99.90;;;;;;5043263;28;20474;-73
2023/01/09 03:31:36;;;;;;;94.05;55.08;;;2.10;99.90;;;;;;5044970;28;20040;-72
2023/01/09 03:34:04;;;;;;;97.43;54.42;;;2.10;99.90;;;;;;5061858;28;20056;-72
2023/01/09 03:36:31;;;;;;;94.65;54.40;;;2.10;99.90;;;;;;5065993;28;20067;-73
2023/01/09 03:38:58;;;;;;;95.72;55.78;;;2.10;99.90;;;;;;5042594;28;20441;-73
2023/01/09 03:41:25;;;;;;;93.10;53.47;;;1.80;99.90;;;;;;5075768;28;20043;-72
2023/01/09 03:43:52;;;;;;;94.20;53.47;;;1.90;99.90;;;;;;5077925;28;20123;-73
2023/01/09 03:46:19;;;;;;;98.28;52.40;;;2.00;99.90;;;;;;5080345;22;20045;-74
2023/01/09 03:48:47;;;;;;;82.32;50.75;;;2.00;99.90;;;;;;5064306;28;20388;-74
2023/01/09 03:51:15;;;;;;;85.47;49.90;;;1.60;99.90;;;;;;5078751;22;20052;-75
2023/01/09 03:53:42;;;;;;;84.68;48.10;;;1.50;99.90;;;;;;5070645;28;20107;-70
2023/01/09 03:56:09;;;;;;;79.97;48.08;;;1.30;99.90;;;;;;5070082;28;20076;-73
2023/01/09 03:58:36;;;;;;;82.10;46.65;;;1.50;99.90;;;;;;5052300;28;20056;-72
2023/01/09 04:01:08;;;;;;;89.05;49.17;;;1.70;99.90;;;;;;5070144;28;20434;-73
2023/01/09 04:03:35;;;;;;;81.90;48.08;;;1.80;99.90;;;;;;5051489;28;20056;-73
2023/01/09 04:06:03;;;;;;;89.18;49.67;;;1.80;99.90;;;;;;5070306;28;20037;-73
2023/01/09 04:08:30;;;;;;;78.75;47.28;;;1.60;99.90;;;;;;5065456;28;20119;-72
2023/01/09 04:10:58;;;;;;;75.10;46.05;;;1.80;99.90;;;;;;5052879;28;20052;-73
2023/01/09 04:13:25;;;;;;;83.28;47.97;;;2.00;99.90;;;;;;5070879;28;20090;-73
2023/01/09 04:15:52;;;;;;;87.18;48.63;;;2.00;99.90;;;;;;5052778;28;20407;-73
2023/01/09 04:18:19;;;;;;;76.55;47.10;;;1.90;99.90;;;;;;5036412;28;20499;-74
2023/01/09 04:20:47;;;;;;;77.85;45.03;;;1.50;99.90;;;;;;5053326;28;20365;-72
2023/01/09 04:23:15;;;;;;;83.75;46.92;;;1.20;99.90;;;;;;5052695;28;20561;-75
2023/01/09 04:25:42;;;;;;;83.28;47.88;;;1.20;99.90;;;;;;5052303;28;20039;-73
2023/01/09 04:28:09;;;;;;;86.28;49.33;;;1.00;99.90;;;;;;5069869;28;20036;-73
2023/01/09 04:30:36;;;;;;;90.05;49.60;;;1.10;99.90;;;;;;5073403;28;20040;-73
2023/01/09 04:33:03;;;;;;;96.18;50.30;;;1.40;99.90;;;;;;5073551;28;20044;-74
2023/01/09 04:35:31;;;;;;;95.90;51.65;;;1.50;99.90;;;;;;5054480;28;20498;-72
2023/01/09 04:37:59;;;;;;;91.25;51.38;;;1.40;99.90;;;;;;5037103;28;20029;-72
2023/01/09 04:40:48;;;;;;;90.65;51.65;;;1.50;99.90;;;;;;5054318;28;20037;-72
2023/01/09 04:43:15;;;;;;;94.95;52.00;;;1.10;99.90;;;;;;5049500;28;20045;-72
2023/01/09 04:45:43;;;;;;;97.72;52.25;;;1.10;99.90;;;;;;5020586;28;20037;-72
2023/01/09 04:48:10;;;;;;;96.10;53.30;;;1.50;99.90;;;;;;5036428;28;20055;-72
2023/01/09 04:50:37;;;;;;;97.32;52.53;;;1.70;99.90;;;;;;5054984;28;20082;-71
2023/01/09 04:53:05;;;;;;;89.13;52.35;;;1.50;99.90;;;;;;5054136;28;20065;-71
2023/01/09 04:55:32;;;;;;;89.30;50.10;;;1.40;99.90;;;;;;5063908;28;20039;-72
2023/01/09 04:58:00;;;;;;;86.82;49.22;;;1.40;99.90;;;;;;5064303;28;20036;-73
2023/01/09 05:00:27;;;;;;;87.50;50.80;;;1.60;99.90;;;;;;5063954;28;20431;-73
2023/01/09 05:02:55;;;;;;;90.93;50.78;;;1.40;99.90;;;;;;5041733;28;20106;-73
2023/01/09 05:05:23;;;;;;;89.97;51.30;;;1.60;99.90;;;;;;5057121;28;20049;-71
2023/01/09 05:07:50;;;;;;;86.28;48.92;;;1.90;99.90;;;;;;5024329;28;20099;-72
2023/01/09 05:10:17;;;;;;;77.50;47.83;;;2.00;99.90;;;;;;5047337;28;20139;-78
2023/01/09 05:12:44;;;;;;;84.97;49.35;;;2.00;99.90;;;;;;5042243;28;20102;-73
2023/01/09 05:15:12;;;;;;;81.32;49.88;;;2.10;99.90;;;;;;5072011;22;20052;-72
2023/01/09 05:17:39;;;;;;;89.95;49.30;;;2.10;99.90;;;;;;5053746;28;20060;-73
2023/01/09 05:20:06;;;;;;;86.22;50.30;;;2.00;99.90;;;;;;5053824;28;20072;-73
2023/01/09 05:22:33;;;;;;;81.78;48.78;;;2.00;99.90;;;;;;5053640;28;20037;-72
2023/01/09 05:25:01;;;;;;;90.03;49.67;;;2.00;99.90;;;;;;5049395;28;20057;-73
2023/01/09 05:27:29;;;;;;;86.72;49.95;;;1.90;99.90;;;;;;5051496;28;20040;-72
2023/01/09 05:29:56;;;;;;;83.85;50.00;;;1.90;99.90;;;;;;5053078;28;20052;-73
2023/01/09 05:32:23;;;;;;;84.43;49.40;;;1.80;99.90;;;;;;5052902;28;20057;-74
2023/01/09 05:34:50;;;;;;;78.55;48.30;;;1.90;99.90;;;;;;5043872;28;20033;-73
2023/01/09 05:37:17;;;;;;;85.20;47.60;;;1.80;99.90;;;;;;5041634;28;20033;-73
2023/01/09 05:39:45;;;;;;;87.15;47.40;;;1.80;99.90;;;;;;5038948;28;20544;-72
2023/01/09 05:42:12;;;;;;;84.70;45.90;;;1.90;99.90;;;;;;5039480;28;20431;-73
2023/01/09 05:44:39;;;;;;;84.22;47.72;;;1.90;99.90;;;;;;5043136;28;20441;-73
2023/01/09 05:47:06;;;;;;;84.32;45.83;;;1.70;99.90;;;;;;5041326;28;20546;-74
2023/01/09 05:49:33;;;;;;;82.30;45.58;;;1.70;99.90;;;;;;5038329;28;20080;-73
2023/01/09 05:52:01;;;;;;;75.05;47.22;;;1.60;99.90;;;;;;5041159;28;20522;-74
2023/01/09 05:54:28;;;;;;;73.97;43.67;;;1.70;99.90;;;;;;5041493;28;20025;-72
2023/01/09 05:56:56;;;;;;;76.65;45.47;;;1.70;99.90;;;;;;5040494;28;20059;-72
2023/01/09 05:59:23;;;;;;;84.95;46.35;;;1.70;99.90;;;;;;5042768;28;20120;-73
2023/01/09 06:01:50;;;;;;;81.43;46.47;;;1.80;99.90;;;;;;5040726;28;20045;-74
2023/01/09 06:04:17;;;;;;;78.97;46.63;;;1.80;99.90;;;;;;5025638;28;20473;-78
2023/01/09 06:06:44;;;;;;;75.22;46.50;;;1.60;99.90;;;;;;5033003;28;20033;-70
2023/01/09 06:09:11;;;;;;;85.60;46.45;;;1.60;99.90;;;;;;5033509;28;20045;-71
2023/01/09 06:11:39;;;;;;;84.45;49.10;;;1.80;99.90;;;;;;5040196;28;20381;-71
2023/01/09 06:14:06;;;;;;;81.68;48.47;;;1.90;99.90;;;;;;5035975;28;20049;-73
2023/01/09 06:16:33;;;;;;;86.97;47.90;;;1.80;99.90;;;;;;5036937;28;20046;-73
2023/01/09 06:19:00;;;;;;;82.03;47.88;;;1.80;99.90;;;;;;5032208;28;20041;-71
2023/01/09 06:21:28;;;;;;;81.13;47.40;;;2.00;99.90;;;;;;5036821;28;20029;-72
2023/01/09 06:23:55;;;;;;;81.30;48.60;;;2.00;99.90;;;;;;5037038;28;20047;-71
2023/01/09 06:26:23;;;;;;;92.82;52.10;;;2.10;99.90;;;;;;5047801;28;20033;-73
2023/01/09 06:28:51;;;;;;;95.97;50.92;;;2.00;99.90;;;;;;5040078;28;20042;-72
2023/01/09 06:31:18;;;;;;;100.78;55.30;;;2.10;99.90;;;;;;5039711;28;20397;-73
2023/01/09 06:33:45;;;;;;;90.82;51.17;;;2.40;99.90;;;;;;5040798;28;20059;-71
2023/01/09 06:36:12;;;;;;;84.97;47.72;;;2.60;99.90;;;;;;5034071;28;20401;-77
2023/01/09 06:38:40;;;;;;;84.75;50.70;;;2.60;99.90;;;;;;5026509;28;20397;-74
2023/01/09 06:41:07;;;;;;;91.25;53.00;;;2.70;99.90;;;;;;5025327;28;20429;-73
2023/01/09 06:43:34;;;;;;;139.68;70.75;;;2.70;99.90;;;;;;5025761;28;20095;-71
2023/01/09 06:46:04;;;;;;;97.55;54.97;;;2.80;99.90;;;;;;5030272;28;20445;-73
2023/01/09 06:48:32;;;;;;;79.93;50.03;;;2.90;99.90;;;;;;5030080;28;20038;-72
2023/01/09 06:50:59;;;;;;;80.55;48.65;;;2.70;99.90;;;;;;5024368;28;20091;-71
2023/01/09 06:53:27;;;;;;;82.75;51.78;;;2.90;99.90;;;;;;5021210;28;20481;-75
2023/01/09 06:55:54;;;;;;;95.63;50.92;;;2.90;99.90;;;;;;5015842;28;20038;-73
2023/01/09 06:58:21;;;;;;;83.97;50.80;;;2.90;99.90;;;;;;5036249;28;20452;-72
2023/01/09 07:00:48;;;;;;;87.03;52.33;;;2.90;99.90;;;;;;5036013;28;20045;-72
2023/01/09 07:03:20;;;;;;;87.10;50.58;;;2.80;99.90;;;;;;5027345;28;20041;-72
2023/01/09 07:05:48;;;;;;;89.15;52.00;;;2.90;99.90;;;;;;5028173;28;20061;-71
2023/01/09 07:08:16;;;;;;;92.80;51.20;;;3.20;99.90;;;;;;5020209;28;20046;-73
2023/01/09 07:10:43;;;;;;;83.95;51.58;;;3.30;99.90;;;;;;5026198;28;20408;-72
2023/01/09 07:13:10;;;;;;;92.15;53.55;;;3.50;99.90;;;;;;5034142;28;20029;-74
2023/01/09 07:15:38;;;;;;;88.28;53.10;;;3.10;99.90;;;;;;5030823;28;20038;-75
2023/01/09 07:18:05;;;;;;;89.80;52.00;;;2.90;99.90;;;;;;5014418;28;20446;-72
2023/01/09 07:20:32;;;;;;;93.40;52.85;;;3.00;99.90;;;;;;5025010;28;20037;-74
2023/01/09 07:23:00;;;;;;;85.45;52.80;;;2.80;99.90;;;;;;5031838;28;20057;-76
2023/01/09 07:25:45;;;;;;;92.88;52.60;;;2.90;99.90;;;;;;5024535;28;20033;-71
2023/01/09 07:28:12;;;;;;;94.95;54.55;;;3.10;99.90;;;;;;5006234;28;20052;-75
2023/01/09 07:30:40;;;;;;;92.28;53.30;;;3.30;99.90;;;;;;5032439;28;20052;-70
2023/01/09 07:33:07;;;;;;;89.63;54.83;;;3.60;99.90;;;;;;5035945;28;20638;-75
2023/01/09 07:35:34;;;;;;;99.15;56.95;;;3.70;99.90;;;;;;5039708;28;20042;-69
2023/01/09 07:38:01;;;;;;;94.32;53.92;;;3.60;99.90;;;;;;5029038;28;20053;-72
2023/01/09 07:40:28;;;;;;;100.95;59.95;;;3.60;99.90;;;;;;5029678;28;20045;-72
2023/01/09 07:42:56;;;;;;;101.20;61.03;;;3.80;99.90;;;;;;5033017;28;20041;-76
2023/01/09 07:45:26;;;;;;;121.35;66.22;;;3.50;99.90;;;;;;5026279;28;20459;-73
2023/01/09 07:47:56;;;;;;;111.70;66.57;;;3.30;99.90;;;;;;5021507;28;20475;-71
2023/01/09 07:50:25;;;;;;;109.80;64.30;;;3.40;99.90;;;;;;5010548;28;20045;-72
2023/01/09 07:52:52;;;;;;;103.57;62.00;;;3.50;99.90;;;;;;5033926;28;20570;-71
2023/01/09 07:55:19;;;;;;;121.40;66.28;;;3.50;99.90;;;;;;5042551;28;20124;-72
2023/01/09 07:57:51;;;;;;;110.85;66.00;;;3.50;99.90;;;;;;5039041;28;20041;-74
2023/01/09 08:00:19;;;;;;;118.13;66.78;;;3.70;99.90;;;;;;5036613;28;20057;-72
2023/01/09 08:02:52;;;;;;;120.20;69.68;;;3.60;99.90;;;;;;5036974;28;20047;-73
2023/01/09 08:05:20;;;;;;;110.60;63.83;;;3.70;99.90;;;;;;5044534;28;20443;-73
2023/01/09 08:07:49;;;;;;;103.72;59.72;;;3.60;99.90;;;;;;5043551;28;20041;-73
2023/01/09 08:10:20;;;;;;;109.95;60.88;;;3.70;99.90;;;;;;5030703;28;20065;-73
2023/01/09 08:12:48;;;;;;;95.53;57.88;;;3.50;99.90;;;;;;5033235;28;20040;-72
2023/01/09 08:15:16;;;;;;;80.63;52.75;;;3.40;99.90;;;;;;5029549;28;20435;-73
2023/01/09 08:17:45;;;;;;;78.72;47.78;;;3.40;99.90;;;;;;5031879;28;20045;-72
2023/01/09 08:20:14;;;;;;;74.43;47.60;;;3.40;99.90;;;;;;5018792;28;20049;-72
2023/01/09 08:22:43;;;;;;;75.83;46.03;;;3.20;99.90;;;;;;5028348;28;20072;-72
2023/01/09 08:25:10;;;;;;;73.78;46.05;;;3.30;99.90;;;;;;5041913;28;20102;-71
2023/01/09 08:27:39;;;;;;;63.85;41.17;;;3.00;99.90;;;;;;5039454;28;20047;-71
2023/01/09 08:30:08;;;;;;;71.93;42.47;;;3.10;99.90;;;;;;5039904;28;20160;-72
2023/01/09 08:32:36;;;;;;;63.05;40.78;;;2.90;99.90;;;;;;5037889;28;20041;-72
2023/01/09 08:35:04;;;;;;;66.60;39.78;;;3.00;99.90;;;;;;5087617;22;20032;-71
2023/01/09 08:37:32;;;;;;;62.40;39.90;;;3.10;99.90;;;;;;5077645;28;20040;-72
2023/01/09 08:39:59;;;;;;;67.60;40.03;;;3.20;99.90;;;;;;5091476;28;20077;-72
2023/01/09 08:47:58;;;;;;;74.35;41.85;;;3.20;99.90;;;;;;5089499;28;20040;-75
2023/01/09 08:50:26;;;;;;;73.07;43.75;;;3.10;99.90;;;;;;5089856;28;20036;-74
2023/01/09 08:53:05;;;;;;;70.75;44.97;;;3.10;99.90;;;;;;5090012;28;20127;-75
2023/01/09 08:55:41;;;;;;;76.28;43.75;;;3.40;99.90;;;;;;5074102;28;20047;-75
2023/01/09 08:58:11;;;;;;;74.05;45.78;;;4.00;99.90;;;;;;5072567;28;20048;-71
2023/01/09 09:00:39;;;;;;;70.63;42.60;;;4.30;99.90;;;;;;5056298;28;20257;-73
2023/01/09 09:03:09;;;;;;;75.35;49.22;;;4.70;99.90;;;;;;5071691;28;20123;-71
2023/01/09 09:05:36;;;;;;;77.93;48.55;;;4.40;99.90;;;;;;5087618;28;20048;-70
2023/01/09 09:08:05;;;;;;;72.75;47.35;;;4.70;99.90;;;;;;5088968;28;20069;-73
2023/01/09 09:10:32;;;;;;;77.20;47.00;;;4.90;99.90;;;;;;5089782;28;20570;-73
2023/01/09 09:13:00;;;;;;;68.68;44.03;;;4.90;99.90;;;;;;5088821;28;20154;-70
2023/01/09 09:15:33;;;;;;;;;;;4.80;99.90;;;;;;5082231;22;20040;-72
2023/01/09 09:18:05;;;;;;;89.18;52.38;;;4.60;99.90;;;;;;5053675;28;20339;-75
2023/01/09 09:20:38;;;;;;;143.82;80.55;;;5.00;99.90;;;;;;5056574;28;20122;-73
2023/01/09 09:23:07;;;;;;;73.43;45.72;;;5.50;99.90;;;;;;5071332;28;20040;-75
2023/01/09 09:25:37;;;;;;;71.47;45.63;;;5.00;99.90;;;;;;5053871;28;20522;-72
2023/01/09 09:28:05;;;;;;;63.63;42.22;;;5.20;99.90;;;;;;5069538;28;20051;-71
2023/01/09 09:30:39;;;;;;;72.25;44.53;;;5.50;99.90;;;;;;5071736;28;20028;-74
2023/01/09 09:33:11;;;;;;;73.53;47.85;;;5.50;99.90;;;;;;5038312;28;20055;-72
2023/01/09 09:35:39;;;;;;;71.25;44.85;;;5.90;99.90;;;;;;5072412;28;20549;-72
2023/01/09 09:38:08;;;;;;;65.35;43.03;;;5.60;99.90;;;;;;5054115;28;20061;-71
2023/01/09 09:44:41;;;;;;;76.63;48.08;;;5.30;99.90;;;;;;5052801;28;20052;-74
2023/01/09 09:47:14;;;;;;;81.85;49.95;;;5.30;99.90;;;;;;5086346;28;20043;-75
2023/01/09 09:50:23;;;;;;;101.28;53.08;;;5.60;99.90;;;;;;5072636;28;20206;-70
2023/01/09 09:53:28;;;;;;;117.45;57.25;;;5.70;99.90;;;;;;5023293;28;20044;-73
2023/01/09 09:55:58;;;;;;;118.05;62.88;;;5.60;99.90;;;;;;5048081;28;20522;-73
2023/01/09 09:58:44;;;;;;;117.88;62.97;;;5.80;99.90;;;;;;5052519;28;20040;-73
2023/01/09 10:01:19;;;;;;;119.28;65.80;;;6.00;99.90;;;;;;5052427;28;20076;-73
2023/01/09 10:03:57;;;;;;;114.32;64.03;;;5.80;99.90;;;;;;5038082;28;20040;-74
2023/01/09 10:06:41;;;;;;;122.22;68.55;;;5.50;99.90;;;;;;5071940;28;20078;-74
2023/01/09 10:09:11;;;;;;;122.97;64.63;;;5.20;99.90;;;;;;5074695;28;20417;-72
2023/01/09 10:12:00;;;;;;;131.38;67.10;;;5.30;99.90;;;;;;5067213;28;20488;-70
2023/01/09 10:14:31;;;;;;;117.57;61.67;;;5.10;99.90;;;;;;5063446;28;20090;-77
2023/01/09 10:17:27;;;;;;;108.60;55.75;;;5.40;99.90;;;;;;5053454;28;20053;-71
2023/01/09 10:20:07;;;;;;;105.30;54.10;;;5.80;99.90;;;;;;5071095;28;20055;-72
2023/01/09 10:22:56;;;;;;;99.78;55.05;;;5.90;99.90;;;;;;5066878;28;20032;-76
2023/01/09 10:25:30;;;;;;;103.35;53.35;;;6.50;99.90;;;;;;5053739;28;20367;-72
2023/01/09 10:28:35;;;;;;;118.15;56.30;;;6.70;99.90;;;;;;5070602;28;20094;-73
2023/01/09 10:31:37;;;;;;;105.57;52.53;;;6.90;99.90;;;;;;5057661;28;20060;-75
2023/01/09 10:34:16;;;;;;;95.63;50.65;;;6.70;99.90;;;;;;5053288;28;20036;-74
2023/01/09 10:36:57;;;;;;;95.80;52.08;;;6.60;99.90;;;;;;5063463;28;20044;-71
2023/01/09 10:40:14;;;;;;;101.18;52.50;;;6.80;99.90;;;;;;5050251;28;20048;-73
2023/01/09 10:43:29;;;;;;;154.65;77.70;;;7.40;99.90;;;;;;5020566;28;20044;-74
2023/01/09 10:46:28;;;;;;;147.57;79.00;;;8.00;99.90;;;;;;5068424;28;20037;-74
2023/01/09 10:49:16;;;;;;;81.95;48.53;;;8.80;99.90;;;;;;5049321;28;20064;-76
2023/01/09 10:52:04;;;;;;;71.65;42.13;;;8.80;99.90;;;;;;5048850;28;20045;-78
2023/01/09 10:55:18;;;;;;;65.13;37.88;;;9.10;99.90;;;;;;5048943;28;20045;-74
2023/01/09 10:57:53;;;;;;;56.90;31.90;;;9.40;99.90;;;;;;5047416;28;20048;-72
2023/01/09 11:00:23;;;;;;;50.08;30.65;;;9.70;99.90;;;;;;5083057;28;20403;-74
2023/01/09 11:02:52;;;;;;;41.42;28.30;;;9.10;99.90;;;;;;5043238;28;20137;-73
2023/01/09 11:05:28;;;;;;;55.88;32.63;;;8.70;99.90;;;;;;5043770;28;20080;-73
2023/01/09 11:08:04;;;;;;;45.03;26.08;;;9.10;99.90;;;;;;5053098;28;20050;-78
2023/01/09 11:10:54;;;;;;;42.88;26.15;;;8.70;99.90;;;;;;5050627;28;20057;-78
2023/01/09 11:13:37;;;;;;;36.63;23.95;;;8.50;99.90;;;;;;5047510;28;20101;-75
2023/01/09 11:16:09;;;;;;;35.25;23.10;;;9.00;99.90;;;;;;5059428;28;20334;-74
2023/01/09 11:18:56;;;;;;;35.28;21.58;;;9.70;99.90;;;;;;5046695;28;20045;-73
2023/01/09 11:21:40;;;;;;;27.33;19.08;;;10.10;99.90;;;;;;5052036;28;20037;-76
2023/01/09 11:24:27;;;;;;;30.30;19.48;;;10.50;99.90;;;;;;5054645;28;20418;-75
2023/01/09 11:31:27;;;;;;;31.60;19.55;;;11.20;99.90;;;;;;5030023;28;20513;-77
2023/01/09 11:34:12;;;;;;;30.33;19.38;;;10.60;99.90;;;;;;4996857;28;20114;-77
2023/01/09 11:37:30;;;;;;;25.00;17.27;;;10.90;99.90;;;;;;5051732;28;20048;-81
2023/01/09 11:40:57;;;;;;;29.00;18.25;;;10.50;99.90;;;;;;5068740;22;20049;-79
2023/01/09 11:43:38;;;;;;;28.42;18.25;;;10.00;99.90;;;;;;5042952;28;20052;-75
2023/01/09 11:46:28;;;;;;;25.25;18.15;;;9.70;99.90;;;;;;5059546;28;20037;-73
2023/01/09 11:49:01;;;;;;;28.65;18.30;;;9.20;99.90;;;;;;5064347;28;20108;-79
2023/01/09 11:51:30;;;;;;;28.20;17.15;;;9.30;99.90;;;;;;5042238;28;20498;-77
2023/01/09 11:54:03;;;;;;;30.15;17.83;;;8.70;99.90;;;;;;5060666;28;20053;-74
2023/01/09 11:56:31;;;;;;;26.52;17.88;;;8.40;99.90;;;;;;5046057;28;20488;-76
2023/01/09 11:58:59;;;;;;;33.17;18.50;;;8.80;99.90;;;;;;5057076;28;20040;-77
2023/01/09 12:01:46;;;;;;;33.97;19.25;;;9.00;99.90;;;;;;5035329;28;20072;-76
2023/01/09 12:04:27;;;;;;;30.40;18.13;;;8.70;99.90;;;;;;5118415;22;20037;-75
2023/01/09 12:07:07;;;;;;;26.65;18.92;;;8.40;99.90;;;;;;5049022;28;20554;-77
2023/01/09 12:09:57;;;;;;;26.33;18.05;;;8.40;99.90;;;;;;5053339;28;20029;-74
2023/01/09 12:13:18;;;;;;;30.00;19.05;;;8.30;99.90;;;;;;5041633;28;20558;-74
2023/01/09 12:16:10;;;;;;;113.75;58.67;;;8.70;99.90;;;;;;5060991;28;20078;-73
2023/01/09 12:19:08;;;;;;;44.10;27.90;;;8.70;99.90;;;;;;5036691;28;20068;-73
2023/01/09 12:21:41;;;;;;;29.67;21.05;;;8.70;99.90;;;;;;5043238;28;20041;-72
2023/01/09 12:24:55;;;;;;;32.67;20.42;;;8.50;99.90;;;;;;5060264;28;20057;-71
2023/01/09 12:27:53;;;;;;;31.48;21.73;;;8.00;99.90;;;;;;5065528;22;20037;-74
2023/01/09 12:30:48;;;;;;;31.20;21.00;;;8.00;99.90;;;;;;5058630;28;20055;-71
2023/01/09 12:33:30;;;;;;;30.80;19.90;;;8.20;99.90;;;;;;5088880;28;20383;-71
2023/01/09 12:36:21;;;;;;;29.88;20.23;;;8.00;99.90;;;;;;5090395;28;20067;-73
2023/01/09 12:39:22;;;;;;;33.42;20.83;;;7.70;99.90;;;;;;5084300;28;20441;-73
2023/01/09 12:42:46;;;;;;;35.50;20.40;;;7.60;99.90;;;;;;5069423;28;20400;-73
2023/01/09 12:45:25;;;;;;;30.98;19.63;;;7.50;99.90;;;;;;4976804;28;20050;-74
2023/01/09 12:48:11;;;;;;;34.35;23.10;;;7.40;99.90;;;;;;5061864;28;20101;-76
2023/01/09 12:51:00;;;;;;;31.63;20.08;;;7.60;99.90;;;;;;5056351;28;20055;-74
2023/01/09 12:53:36;;;;;;;36.33;21.10;;;7.50;99.90;;;;;;5092525;28;20364;-74
2023/01/09 12:56:09;;;;;;;34.25;20.98;;;7.60;99.90;;;;;;5076573;28;20046;-75
2023/01/09 12:58:47;;;;;;;34.90;20.60;;;7.60;99.90;;;;;;5070849;28;20078;-76
2023/01/09 13:01:29;;;;;;;31.52;20.35;;;7.70;99.90;;;;;;5078655;28;20454;-75
2023/01/09 13:04:29;;;;;;;31.23;20.07;;;7.70;99.90;;;;;;5087405;28;20058;-77
2023/01/09 13:07:03;;;;;;;29.88;19.67;;;7.60;99.90;;;;;;5093287;28;20077;-75
2023/01/09 13:10:09;;;;;;;35.78;22.13;;;7.70;99.90;;;;;;5093004;28;20119;-76
2023/01/09 13:12:38;;;;;;;30.38;19.08;;;7.60;99.90;;;;;;5047852;28;20089;-73
2023/01/09 13:15:27;;;;;;;29.52;18.98;;;7.40;99.90;;;;;;5101410;22;20507;-74
2023/01/09 13:18:08;;;;;;;30.25;20.15;;;7.40;99.90;;;;;;5080291;28;20043;-76
2023/01/09 13:20:40;;;;;;;38.80;22.42;;;7.50;99.90;;;;;;5095529;28;20482;-73
2023/01/09 13:23:49;;;;;;;32.45;20.88;;;7.60;99.90;;;;;;5094466;28;20055;-75
2023/01/09 13:26:24;;;;;;;32.00;18.85;;;7.50;99.90;;;;;;5115575;28;20067;-75